Time;durP1;ratioP1;P1;durP2;ratioP2;P2;SDS_P1;SDS_P2;PMS_P1;PMS_P2;Temp;Humidity;BMP_temperature;BMP_pressure;BME280_temperature;BME280_humidity;BME280_pressure;Samples;Min_cycle;Max_cycle;Signal;HPM_P1;HPM_P2
2022/09/04 00:00:19;;;;;;;4.85;1.40;;;17.20;90.00;;;;;;5063218;28;20456;-70
2022/09/04 00:02:58;;;;;;;3.67;1.30;;;17.20;90.00;;;;;;5061320;28;20079;-70
2022/09/04 00:05:38;;;;;;;5.88;1.60;;;17.20;90.00;;;;;;5062324;28;20044;-70
2022/09/04 00:08:36;;;;;;;3.70;1.25;;;17.10;90.00;;;;;;5065310;28;20037;-70
2022/09/04 00:11:30;;;;;;;9.52;1.60;;;17.10;90.20;;;;;;5075389;28;20135;-70
2022/09/04 00:14:03;;;;;;;4.88;1.27;;;17.10;90.20;;;;;;5066665;28;20064;-70
2022/09/04 00:17:00;;;;;;;4.80;1.50;;;17.00;90.20;;;;;;5063749;28;20131;-70
2022/09/04 00:19:44;;;;;;;4.35;1.27;;;17.00;90.30;;;;;;5064765;28;20811;-70
2022/09/04 00:22:21;;;;;;;3.65;1.33;;;16.90;90.20;;;;;;5065066;28;20435;-70
2022/09/04 00:25:06;;;;;;;4.65;1.40;;;16.90;90.30;;;;;;5065613;28;20405;-70
2022/09/04 00:27:43;;;;;;;5.15;1.70;;;16.90;90.30;;;;;;5064847;28;20111;-69
2022/09/04 00:30:19;;;;;;;5.85;1.50;;;16.90;90.30;;;;;;5065190;28;20075;-69
2022/09/04 00:32:58;;;;;;;3.28;1.08;;;16.80;90.30;;;;;;5064690;28;20106;-70
2022/09/04 00:35:30;;;;;;;6.03;1.30;;;16.80;90.30;;;;;;5076077;28;20037;-69
2022/09/04 00:38:13;;;;;;;4.28;1.48;;;16.70;90.40;;;;;;5044919;28;20043;-69
2022/09/04 00:40:46;;;;;;;7.38;1.50;;;16.70;90.40;;;;;;5066722;28;20197;-70
2022/09/04 00:43:31;;;;;;;8.30;1.20;;;16.70;90.50;;;;;;5068283;28;20067;-70
2022/09/04 00:46:30;;;;;;;5.85;1.27;;;16.70;90.60;;;;;;5068318;28;20040;-70
2022/09/04 00:49:05;;;;;;;3.90;1.48;;;16.60;90.60;;;;;;5072363;28;20049;-69
2022/09/04 00:52:12;;;;;;;6.47;1.35;;;16.60;90.80;;;;;;5065236;28;20045;-70
2022/09/04 00:54:40;;;;;;;7.63;1.42;;;16.60;90.90;;;;;;5051665;28;20482;-70
2022/09/04 00:57:39;;;;;;;3.83;1.30;;;16.60;90.90;;;;;;5063461;28;20115;-70
2022/09/04 01:00:14;;;;;;;4.93;1.40;;;16.50;91.00;;;;;;5065470;28;20131;-70
2022/09/04 01:03:02;;;;;;;5.55;1.55;;;16.40;91.00;;;;;;5066993;28;20054;-70
2022/09/04 01:06:02;;;;;;;5.63;1.33;;;16.40;91.00;;;;;;5065357;28;20040;-70
2022/09/04 01:08:40;;;;;;;3.00;1.38;;;16.40;91.10;;;;;;5062239;28;20518;-70
2022/09/04 01:11:42;;;;;;;3.00;1.50;;;16.40;91.10;;;;;;5066995;28;20144;-70
2022/09/04 01:14:33;;;;;;;2.80;1.38;;;16.30;91.10;;;;;;5066304;28;20049;-70
2022/09/04 01:17:24;;;;;;;5.28;1.45;;;16.30;91.20;;;;;;5066570;28;20047;-69
2022/09/04 01:20:19;;;;;;;3.75;1.70;;;16.30;91.20;;;;;;5064811;28;20075;-69
2022/09/04 01:23:01;;;;;;;4.13;1.60;;;16.20;91.30;;;;;;5066932;28;20052;-69
2022/09/04 01:26:04;;;;;;;3.65;1.33;;;16.20;91.30;;;;;;5066979;28;20586;-70
2022/09/04 01:28:46;;;;;;;4.60;1.40;;;16.20;91.40;;;;;;5066709;28;20413;-70
2022/09/04 01:31:43;;;;;;;3.40;1.20;;;16.10;91.50;;;;;;5054419;28;20055;-70
2022/09/04 01:34:33;;;;;;;9.88;1.48;;;16.10;91.50;;;;;;5066880;28;20102;-70
2022/09/04 01:37:29;;;;;;;5.60;1.60;;;16.10;91.70;;;;;;5066092;28;20036;-70
2022/09/04 01:40:07;;;;;;;4.13;1.63;;;16.10;91.70;;;;;;5066536;28;20044;-70
2022/09/04 01:42:46;;;;;;;4.25;1.50;;;16.00;91.80;;;;;;5064771;28;20040;-70
2022/09/04 01:45:17;;;;;;;4.88;1.63;;;16.00;91.90;;;;;;5049010;28;20564;-70
2022/09/04 01:47:48;;;;;;;5.63;1.67;;;16.00;92.00;;;;;;5065716;28;20036;-70
2022/09/04 01:50:21;;;;;;;6.00;1.80;;;15.90;92.00;;;;;;5067725;28;20048;-70
2022/09/04 01:52:59;;;;;;;3.08;1.38;;;15.90;92.20;;;;;;5065888;28;20049;-70
2022/09/04 01:56:03;;;;;;;4.82;1.60;;;15.90;92.20;;;;;;5068182;28;20899;-70
2022/09/04 01:58:49;;;;;;;3.85;1.40;;;15.90;92.40;;;;;;5046065;28;20048;-70
2022/09/04 02:01:24;;;;;;;7.03;1.80;;;15.80;92.30;;;;;;5066296;28;20044;-70
2022/09/04 02:04:21;;;;;;;5.85;1.90;;;15.80;92.60;;;;;;5065983;28;20045;-70
2022/09/04 02:06:53;;;;;;;4.07;1.63;;;15.80;92.70;;;;;;5066216;28;20048;-70
2022/09/04 02:09:30;;;;;;;5.63;1.58;;;15.70;92.70;;;;;;5070656;28;20046;-70
2022/09/04 02:12:34;;;;;;;7.53;1.60;;;15.80;92.80;;;;;;5065357;28;20131;-70
2022/09/04 02:15:29;;;;;;;8.25;1.60;;;15.70;93.00;;;;;;5065932;28;20052;-70
2022/09/04 02:18:18;;;;;;;4.30;1.70;;;15.70;93.20;;;;;;5066868;28;20059;-70
2022/09/04 02:20:54;;;;;;;5.57;1.48;;;15.70;93.30;;;;;;5067723;28;20044;-70
2022/09/04 02:23:31;;;;;;;4.57;1.52;;;15.70;93.30;;;;;;5067470;28;20040;-70
2022/09/04 02:26:20;;;;;;;4.68;1.65;;;15.60;93.50;;;;;;5066087;28;20071;-70
2022/09/04 02:28:52;;;;;;;6.00;1.58;;;15.60;93.60;;;;;;5066929;28;20078;-70
2022/09/04 02:31:38;;;;;;;5.60;1.60;;;15.60;93.70;;;;;;5066457;28;20082;-70
2022/09/04 02:34:11;;;;;;;5.20;1.73;;;15.60;93.90;;;;;;5063904;28;20416;-69
2022/09/04 02:36:53;;;;;;;7.35;2.05;;;15.50;94.10;;;;;;5066663;28;20036;-69
2022/09/04 02:39:42;;;;;;;4.20;1.60;;;15.50;94.40;;;;;;5067069;28;20032;-69
2022/09/04 02:42:22;;;;;;;3.97;1.67;;;15.50;94.60;;;;;;5066520;28;20091;-69
2022/09/04 02:45:20;;;;;;;5.22;1.63;;;15.50;94.70;;;;;;5064623;28;20463;-70
2022/09/04 02:47:56;;;;;;;5.82;1.40;;;15.50;94.90;;;;;;5017407;28;20062;-70
2022/09/04 02:50:52;;;;;;;4.13;1.50;;;15.50;95.20;;;;;;5065700;28;20078;-69
2022/09/04 02:53:42;;;;;;;4.82;1.80;;;15.40;95.40;;;;;;5065198;28;20397;-70
2022/09/04 02:56:42;;;;;;;7.43;1.50;;;15.40;95.60;;;;;;5066090;28;20136;-69
2022/09/04 02:59:14;;;;;;;4.43;1.70;;;15.40;96.00;;;;;;5061663;28;20189;-69
2022/09/04 03:01:58;;;;;;;3.78;1.40;;;15.30;96.10;;;;;;5061160;28;20043;-71
2022/09/04 03:04:48;;;;;;;5.63;1.90;;;15.30;96.30;;;;;;5055566;28;20530;-69
2022/09/04 03:07:23;;;;;;;6.43;1.70;;;15.30;96.70;;;;;;5062535;28;20036;-69
2022/09/04 03:10:14;;;;;;;7.85;1.88;;;15.30;96.90;;;;;;5060266;28;20088;-69
2022/09/04 03:12:58;;;;;;;4.50;1.70;;;15.20;97.00;;;;;;5047982;28;20061;-69
2022/09/04 03:15:44;;;;;;;6.90;1.75;;;15.20;97.20;;;;;;5065008;28;20131;-69
2022/09/04 03:18:14;;;;;;;7.07;1.88;;;15.20;97.50;;;;;;5066312;28;20501;-69
2022/09/04 03:20:56;;;;;;;4.60;1.60;;;15.20;97.70;;;;;;5049181;28;20086;-69
2022/09/04 03:23:50;;;;;;;6.25;1.70;;;15.20;98.10;;;;;;5066807;28;20389;-69
2022/09/04 03:26:34;;;;;;;5.15;1.98;;;15.20;98.40;;;;;;5065360;28;20307;-69
2022/09/04 03:29:15;;;;;;;4.88;1.70;;;15.10;98.50;;;;;;5047997;28;20101;-69
2022/09/04 03:32:14;;;;;;;7.80;1.52;;;15.10;98.90;;;;;;5063580;28;20504;-69
2022/09/04 03:34:39;;;;;;;4.82;1.70;;;15.00;98.90;;;;;;5063649;28;20041;-69
2022/09/04 03:37:33;;;;;;;3.85;1.77;;;15.00;99.00;;;;;;5065165;28;20082;-69
2022/09/04 03:40:21;;;;;;;14.10;1.83;;;15.00;99.30;;;;;;5065670;28;20131;-70
2022/09/04 03:42:52;;;;;;;5.00;1.90;;;15.00;99.70;;;;;;5066437;28;20093;-69
2022/09/04 03:45:47;;;;;;;6.25;1.50;;;14.90;99.70;;;;;;5063766;28;20037;-69
2022/09/04 03:48:43;;;;;;;5.32;1.80;;;14.90;99.90;;;;;;5066160;28;20045;-70
2022/09/04 03:51:30;;;;;;;6.03;1.98;;;14.90;99.90;;;;;;5065280;28;20401;-70
2022/09/04 03:54:17;;;;;;;4.80;1.80;;;14.80;99.90;;;;;;5067346;28;20045;-70
2022/09/04 03:56:57;;;;;;;4.43;1.80;;;14.80;99.90;;;;;;5062873;28;20036;-69
2022/09/04 03:59:39;;;;;;;6.25;1.92;;;14.80;99.90;;;;;;5061698;28;20037;-70
2022/09/04 04:02:38;;;;;;;4.68;1.60;;;14.70;99.90;;;;;;5043083;28;20114;-69
2022/09/04 04:05:10;;;;;;;4.63;1.88;;;14.70;99.90;;;;;;5048516;28;20123;-70
2022/09/04 04:08:07;;;;;;;5.03;1.60;;;14.70;99.90;;;;;;5048530;28;20056;-69
2022/09/04 04:11:08;;;;;;;5.20;1.70;;;14.60;99.90;;;;;;5064833;28;20385;-70
2022/09/04 04:14:05;;;;;;;5.10;2.50;;;14.60;99.90;;;;;;5000119;28;20913;-70
2022/09/04 04:16:41;;;;;;;4.18;1.60;;;14.60;99.90;;;;;;5057403;28;20611;-70
2022/09/04 04:19:37;;;;;;;5.82;1.83;;;14.60;99.90;;;;;;5062061;28;20044;-70
2022/09/04 04:22:30;;;;;;;5.53;1.80;;;14.50;99.90;;;;;;5063462;28;20513;-70
2022/09/04 04:25:31;;;;;;;10.43;1.92;;;14.50;99.90;;;;;;5064644;28;20106;-70
2022/09/04 04:27:59;;;;;;;3.85;1.58;;;14.50;99.90;;;;;;5031391;28;20056;-70
2022/09/04 04:30:33;;;;;;;3.70;1.65;;;14.40;99.90;;;;;;5063240;28;20052;-70
2022/09/04 04:33:31;;;;;;;5.63;1.98;;;14.60;99.90;;;;;;5062116;28;20123;-70
2022/09/04 04:36:17;;;;;;;7.93;1.70;;;14.40;99.90;;;;;;5065412;28;20040;-69
2022/09/04 04:39:11;;;;;;;4.95;1.98;;;14.40;99.90;;;;;;5063398;28;20189;-70
2022/09/04 04:42:05;;;;;;;4.85;1.42;;;14.40;99.90;;;;;;5064902;28;20048;-69
2022/09/04 04:48:06;;;;;;;3.80;1.92;;;14.40;99.90;;;;;;5066129;28;20115;-69
2022/09/04 04:50:41;;;;;;;8.45;1.77;;;14.40;99.90;;;;;;5063952;28;20036;-69
2022/09/04 04:53:49;;;;;;;5.95;1.67;;;14.30;99.90;;;;;;5061569;28;20056;-69
2022/09/04 04:56:25;;;;;;;4.38;2.03;;;14.30;99.90;;;;;;5063997;28;20068;-69
2022/09/04 04:59:05;;;;;;;6.75;1.98;;;14.30;99.90;;;;;;5048679;28;20393;-69
2022/09/04 05:01:43;;;;;;;7.90;2.20;;;14.30;99.90;;;;;;5048212;28;20044;-69
2022/09/04 05:04:31;;;;;;;4.45;2.17;;;14.30;99.90;;;;;;5080298;28;20550;-69
2022/09/04 05:07:09;;;;;;;8.35;2.10;;;14.20;99.90;;;;;;5063138;28;20089;-69
2022/09/04 05:10:01;;;;;;;4.63;1.75;;;14.20;99.90;;;;;;5066173;28;20489;-69
2022/09/04 05:12:57;;;;;;;7.30;2.00;;;14.20;99.90;;;;;;5063667;28;20092;-69
2022/09/04 05:16:02;;;;;;;4.88;2.15;;;14.20;99.90;;;;;;5045681;28;20512;-69
2022/09/04 05:18:35;;;;;;;6.90;2.30;;;14.20;99.90;;;;;;5046085;28;20044;-69
2022/09/04 05:21:30;;;;;;;5.13;1.88;;;14.20;99.90;;;;;;5062250;28;20041;-70
2022/09/04 05:24:19;;;;;;;8.13;1.95;;;14.20;99.90;;;;;;5054220;28;20055;-70
2022/09/04 05:26:58;;;;;;;6.72;2.00;;;14.20;99.90;;;;;;5066012;28;20037;-69
2022/09/04 05:29:50;;;;;;;6.28;2.17;;;14.20;99.90;;;;;;5066713;28;20040;-70
2022/09/04 05:32:31;;;;;;;6.95;2.03;;;14.20;99.90;;;;;;5068831;28;20080;-69
2022/09/04 05:35:09;;;;;;;7.88;2.45;;;14.30;99.90;;;;;;5050426;28;20062;-69
2022/09/04 05:38:11;;;;;;;10.77;2.28;;;14.30;99.90;;;;;;5065320;28;20044;-69
2022/09/04 05:41:04;;;;;;;4.57;1.88;;;14.30;99.90;;;;;;5068000;28;20067;-69
2022/09/04 05:43:58;;;;;;;5.30;1.95;;;14.30;99.90;;;;;;5062425;28;20519;-69
2022/09/04 05:46:24;;;;;;;7.03;2.47;;;14.40;99.90;;;;;;5062793;28;20146;-70
2022/09/04 05:48:59;;;;;;;6.82;1.90;;;14.40;99.90;;;;;;5062245;28;20032;-70
2022/09/04 05:51:43;;;;;;;5.40;2.10;;;14.40;99.90;;;;;;5056774;28;20036;-69
2022/09/04 05:54:34;;;;;;;7.13;2.03;;;14.40;99.90;;;;;;5057789;28;20679;-69
2022/09/04 05:57:24;;;;;;;5.78;2.17;;;14.50;99.90;;;;;;5040408;28;20045;-69
2022/09/04 06:00:05;;;;;;;5.33;1.97;;;14.50;99.90;;;;;;5069025;28;20262;-69
2022/09/04 06:02:36;;;;;;;6.80;2.15;;;14.50;99.90;;;;;;5068075;28;20294;-70
2022/09/04 06:05:17;;;;;;;;;;;14.60;99.90;;;;;;5068366;28;20434;-69
2022/09/04 06:08:00;;;;;;;4.97;1.95;;;14.60;99.90;;;;;;5066511;28;20454;-70
2022/09/04 06:10:41;;;;;;;5.90;2.08;;;14.60;99.90;;;;;;5062581;28;20051;-70
2022/09/04 06:13:22;;;;;;;4.85;1.92;;;14.70;99.90;;;;;;5060987;28;20619;-70
2022/09/04 06:15:51;;;;;;;7.83;2.40;;;14.70;99.90;;;;;;5045560;28;20490;-68
2022/09/04 06:18:17;;;;;;;7.72;2.58;;;14.70;99.90;;;;;;5063561;28;20055;-67
2022/09/04 06:21:19;;;;;;;5.20;2.33;;;14.70;99.90;;;;;;5046749;28;20040;-68
2022/09/04 06:24:07;;;;;;;5.55;2.15;;;14.80;99.90;;;;;;5077034;28;20410;-68
2022/09/04 06:27:16;;;;;;;5.15;2.40;;;14.80;99.90;;;;;;5063754;28;20087;-68
2022/09/04 06:29:52;;;;;;;7.55;2.60;;;14.90;99.90;;;;;;5056207;28;20383;-70
2022/09/04 06:32:33;;;;;;;7.97;2.22;;;15.00;99.90;;;;;;5067149;28;20037;-71
2022/09/04 06:35:10;;;;;;;4.80;2.22;;;15.00;99.90;;;;;;5051590;28;20071;-70
2022/09/04 06:38:01;;;;;;;7.28;2.08;;;15.00;99.90;;;;;;5065915;28;20044;-70
2022/09/04 06:40:27;;;;;;;5.38;2.20;;;15.00;99.90;;;;;;5066212;28;20053;-71
2022/09/04 06:43:15;;;;;;;7.40;2.15;;;15.10;99.90;;;;;;5083412;28;20049;-71
2022/09/04 06:46:16;;;;;;;6.63;2.10;;;15.10;99.90;;;;;;5066511;28;20063;-70
2022/09/04 06:49:03;;;;;;;7.03;2.17;;;15.20;99.90;;;;;;5066557;28;20075;-70
2022/09/04 06:51:55;;;;;;;7.57;2.10;;;15.20;99.90;;;;;;5063760;28;20041;-70
2022/09/04 06:54:20;;;;;;;7.15;2.30;;;15.30;99.90;;;;;;5062851;28;20206;-70
2022/09/04 06:56:58;;;;;;;5.50;2.47;;;15.30;99.90;;;;;;5059632;28;20135;-70
2022/09/04 06:59:40;;;;;;;6.15;2.10;;;15.30;99.90;;;;;;5047613;28;20098;-70
2022/09/04 07:02:35;;;;;;;5.40;2.15;;;15.40;99.90;;;;;;5065755;28;20144;-70
2022/09/04 07:05:12;;;;;;;7.60;2.63;;;15.40;99.90;;;;;;5064620;28;20094;-70
2022/09/04 07:07:51;;;;;;;9.02;2.35;;;15.50;99.90;;;;;;5063969;28;20123;-70
2022/09/04 07:10:26;;;;;;;6.15;2.40;;;15.60;99.90;;;;;;5067086;28;20036;-70
2022/09/04 07:13:14;;;;;;;6.38;2.58;;;15.60;99.90;;;;;;5047449;28;20049;-70
2022/09/04 07:16:08;;;;;;;11.75;2.20;;;15.80;99.90;;;;;;5062117;28;20497;-70
2022/09/04 07:18:49;;;;;;;7.30;2.20;;;15.90;99.90;;;;;;5063703;28;20063;-70
2022/09/04 07:21:25;;;;;;;5.53;2.10;;;16.10;99.90;;;;;;5059368;28;20040;-70
2022/09/04 07:24:12;;;;;;;5.82;2.30;;;16.30;99.90;;;;;;5061796;28;20056;-70
2022/09/04 07:27:14;;;;;;;6.47;2.20;;;16.50;99.90;;;;;;5061284;28;20055;-70
2022/09/04 07:29:56;;;;;;;6.50;2.60;;;16.80;99.90;;;;;;5071009;28;20565;-70
2022/09/04 07:32:32;;;;;;;6.38;2.08;;;17.00;99.90;;;;;;5063912;28;20036;-70
2022/09/04 07:35:18;;;;;;;7.82;2.03;;;17.20;99.90;;;;;;5065700;28;20044;-70
2022/09/04 07:38:22;;;;;;;8.55;2.25;;;17.40;99.90;;;;;;5047228;28;20520;-70
2022/09/04 07:40:54;;;;;;;6.05;1.95;;;17.60;99.90;;;;;;5056899;28;20032;-70
2022/09/04 07:43:45;;;;;;;6.68;2.30;;;17.80;99.90;;;;;;5059892;28;20483;-70
2022/09/04 07:46:29;;;;;;;4.68;2.03;;;18.00;99.90;;;;;;5061600;28;20052;-70
2022/09/04 07:49:09;;;;;;;5.90;1.88;;;18.10;99.90;;;;;;5061733;28;20051;-69
2022/09/04 07:51:57;;;;;;;6.10;2.03;;;18.20;99.90;;;;;;5078465;28;20044;-70
2022/09/04 07:54:32;;;;;;;11.07;2.03;;;18.30;99.90;;;;;;5062136;28;20071;-70
2022/09/04 07:57:13;;;;;;;7.30;2.13;;;18.40;99.90;;;;;;5062129;28;20082;-71
2022/09/04 07:59:39;;;;;;;;;;;18.60;99.90;;;;;;5061970;28;20033;-70
2022/09/04 08:02:28;;;;;;;6.88;2.08;;;18.70;99.90;;;;;;5059768;28;19924;-69
2022/09/04 08:05:23;;;;;;;8.68;1.90;;;18.80;99.90;;;;;;5057886;28;20135;-70
2022/09/04 08:08:03;;;;;;;5.85;1.90;;;18.90;99.90;;;;;;5057768;28;20080;-70
2022/09/04 08:10:37;;;;;;;5.22;2.00;;;19.10;99.90;;;;;;5053955;28;20195;-70
2022/09/04 08:13:09;;;;;;;6.72;1.80;;;19.20;99.90;;;;;;5069573;28;20048;-69
2022/09/04 08:15:45;;;;;;;8.20;2.28;;;19.30;99.90;;;;;;5054872;28;20063;-77
2022/09/04 08:18:20;;;;;;;5.97;2.22;;;19.50;99.90;;;;;;5052820;28;20547;-76
2022/09/04 08:20:58;;;;;;;8.23;1.90;;;19.60;99.90;;;;;;5053081;28;20482;-76
2022/09/04 08:23:51;;;;;;;5.70;2.10;;;19.70;99.90;;;;;;5055961;28;20078;-76
2022/09/04 08:26:38;;;;;;;5.45;2.40;;;19.90;99.90;;;;;;5057855;28;20516;-76
2022/09/04 08:29:35;;;;;;;5.55;2.20;;;20.00;99.90;;;;;;5055113;28;20409;-76
2022/09/04 08:32:07;;;;;;;6.35;1.80;;;20.10;99.90;;;;;;5038445;28;20072;-77
2022/09/04 08:35:00;;;;;;;7.60;2.10;;;20.30;99.90;;;;;;5070315;28;21704;-76
2022/09/04 08:37:41;;;;;;;4.88;1.95;;;20.40;99.90;;;;;;5034813;28;20405;-76
2022/09/04 08:40:24;;;;;;;7.70;1.90;;;20.50;99.90;;;;;;5052732;28;22118;-76
2022/09/04 08:43:08;;;;;;;5.47;1.50;;;20.70;99.90;;;;;;5056380;28;20102;-78
2022/09/04 08:45:58;;;;;;;9.20;1.80;;;20.80;99.90;;;;;;5059228;28;20052;-77
2022/09/04 08:48:32;;;;;;;7.17;1.83;;;20.90;99.90;;;;;;5072638;28;20045;-79
2022/09/04 08:51:29;;;;;;;4.55;1.95;;;21.10;99.90;;;;;;5074954;28;20322;-77
2022/09/04 08:54:36;;;;;;;6.40;2.00;;;21.20;99.90;;;;;;5057426;28;20055;-79
2022/09/04 08:57:21;;;;;;;4.80;1.95;;;21.30;99.90;;;;;;5063054;28;20040;-79
2022/09/04 09:00:06;;;;;;;4.65;1.90;;;21.50;99.90;;;;;;5078476;28;20090;-81
2022/09/04 09:03:03;;;;;;;6.15;1.88;;;21.60;99.90;;;;;;5063693;28;20145;-79
2022/09/04 09:05:52;;;;;;;5.50;1.88;;;21.70;99.90;;;;;;5061337;28;20044;-82
2022/09/04 09:08:28;;;;;;;5.65;1.58;;;21.80;99.90;;;;;;5053507;28;20654;-80
2022/09/04 09:11:10;;;;;;;5.60;1.83;;;21.80;99.90;;;;;;5064630;28;20065;-79
2022/09/04 09:14:13;;;;;;;4.07;2.00;;;21.90;99.90;;;;;;5057066;28;20080;-81
2022/09/04 09:17:02;;;;;;;7.93;2.22;;;22.00;99.90;;;;;;5063754;28;20052;-81
2022/09/04 09:19:45;;;;;;;5.13;2.20;;;22.00;99.50;;;;;;5053858;28;20048;-78
2022/09/04 09:22:40;;;;;;;6.82;1.88;;;22.10;99.30;;;;;;5059843;28;20044;-82
2022/09/04 09:25:31;;;;;;;5.13;2.05;;;22.20;99.40;;;;;;5036700;28;20060;-81
2022/09/04 09:28:12;;;;;;;6.40;2.40;;;22.30;99.50;;;;;;5057681;28;20257;-77
2022/09/04 09:31:15;;;;;;;5.50;2.13;;;22.40;98.80;;;;;;5058527;28;20037;-79
2022/09/04 09:34:24;;;;;;;5.35;2.28;;;22.40;98.40;;;;;;5057270;28;20044;-77
2022/09/04 09:37:31;;;;;;;5.05;1.88;;;22.50;98.40;;;;;;5062361;28;20037;-78
2022/09/04 09:40:09;;;;;;;5.88;1.60;;;22.60;98.50;;;;;;4999430;28;20081;-77
2022/09/04 09:42:48;;;;;;;6.85;1.70;;;22.60;98.40;;;;;;5053112;28;20431;-78
2022/09/04 09:45:50;;;;;;;5.80;1.88;;;22.70;98.20;;;;;;5043027;28;20044;-76
2022/09/04 09:48:48;;;;;;;6.47;1.65;;;22.70;97.80;;;;;;5062226;28;20056;-78
2022/09/04 09:51:49;;;;;;;3.28;1.35;;;22.80;98.10;;;;;;5045089;28;20040;-77
2022/09/04 09:54:23;;;;;;;7.60;1.58;;;23.00;97.90;;;;;;5059820;28;20048;-77
2022/09/04 09:57:01;;;;;;;5.45;1.48;;;23.00;98.00;;;;;;5061697;28;20055;-77
2022/09/04 10:00:10;;;;;;;3.53;1.58;;;23.10;98.10;;;;;;5044684;28;20059;-77
2022/09/04 10:02:45;;;;;;;4.65;1.80;;;23.30;97.30;;;;;;5030432;28;20119;-77
2022/09/04 10:05:53;;;;;;;3.97;1.50;;;23.40;97.10;;;;;;5064392;28;20098;-76
2022/09/04 10:08:37;;;;;;;4.10;1.65;;;23.40;96.40;;;;;;5038792;28;20508;-78
2022/09/04 10:11:37;;;;;;;5.93;1.55;;;23.50;96.30;;;;;;5060511;28;20078;-78
2022/09/04 10:14:27;;;;;;;5.57;1.63;;;23.50;95.60;;;;;;5062685;28;20053;-76
2022/09/04 10:17:27;;;;;;;4.80;1.60;;;23.60;96.00;;;;;;5061006;28;20044;-77
2022/09/04 10:20:21;;;;;;;5.60;1.45;;;23.70;95.70;;;;;;5063140;28;20515;-77
2022/09/04 10:23:02;;;;;;;4.43;1.50;;;23.80;95.80;;;;;;5060526;28;20471;-79
2022/09/04 10:25:56;;;;;;;4.20;1.77;;;23.80;95.00;;;;;;5078115;28;20067;-78
2022/09/04 10:28:34;;;;;;;4.22;1.38;;;23.80;95.20;;;;;;5063120;28;20044;-78
2022/09/04 10:31:27;;;;;;;4.80;1.40;;;23.90;95.10;;;;;;5065915;28;20079;-78
2022/09/04 10:34:43;;;;;;;7.45;1.48;;;23.90;94.90;;;;;;5045610;28;20048;-78
2022/09/04 10:37:46;;;;;;;6.78;1.40;;;24.00;94.80;;;;;;5028874;28;20132;-79
2022/09/04 10:43:08;;;;;;;3.47;1.40;;;24.00;94.30;;;;;;5057989;28;20056;-76
2022/09/04 10:45:37;;;;;;;4.57;1.40;;;24.10;94.10;;;;;;5046098;28;20083;-76
2022/09/04 10:48:37;;;;;;;7.57;1.45;;;24.10;94.10;;;;;;5046453;28;20439;-78
2022/09/04 10:51:33;;;;;;;5.78;1.50;;;24.20;94.00;;;;;;5063304;28;20044;-77
2022/09/04 10:54:17;;;;;;;3.50;1.20;;;24.20;93.90;;;;;;5062243;28;20051;-78
2022/09/04 10:56:55;;;;;;;5.80;1.40;;;24.30;93.80;;;;;;5056918;28;20063;-78
2022/09/04 10:59:30;;;;;;;4.82;1.10;;;24.30;93.20;;;;;;5058609;28;20040;-79
2022/09/04 11:02:15;;;;;;;2.35;1.17;;;24.30;93.80;;;;;;5059152;28;20048;-78
2022/09/04 11:04:46;;;;;;;5.93;1.70;;;24.40;93.50;;;;;;5058853;28;20052;-78
2022/09/04 11:07:57;;;;;;;5.47;1.35;;;24.50;93.00;;;;;;5058760;28;20078;-77
2022/09/04 11:10:37;;;;;;;4.20;1.48;;;24.60;92.90;;;;;;5058642;28;20044;-79
2022/09/04 11:13:39;;;;;;;2.67;1.17;;;24.70;92.70;;;;;;5061102;28;20060;-76
2022/09/04 11:16:36;;;;;;;4.20;1.20;;;24.70;92.60;;;;;;5045031;28;20416;-77
2022/09/04 11:19:27;;;;;;;5.30;1.20;;;24.80;92.60;;;;;;5060016;28;20095;-76
2022/09/04 11:22:33;;;;;;;7.63;1.30;;;24.90;92.50;;;;;;5041445;28;20056;-80
2022/09/04 11:25:17;;;;;;;4.28;1.40;;;25.00;92.20;;;;;;5058854;28;20055;-78
2022/09/04 11:28:21;;;;;;;4.57;1.40;;;25.00;92.30;;;;;;5075645;28;20075;-78
2022/09/04 11:31:15;;;;;;;5.53;1.55;;;25.10;91.80;;;;;;5073230;28;20051;-78
2022/09/04 11:34:00;;;;;;;3.63;1.45;;;25.20;91.40;;;;;;5057866;28;20037;-76
2022/09/04 11:36:47;;;;;;;2.72;1.00;;;25.10;91.80;;;;;;5056388;28;20055;-77
2022/09/04 11:39:48;;;;;;;4.18;1.70;;;25.20;91.30;;;;;;5055814;28;20048;-78
2022/09/04 11:42:23;;;;;;;4.25;1.10;;;25.20;91.20;;;;;;5055890;28;20056;-78
2022/09/04 11:45:27;;;;;;;5.47;1.27;;;25.20;91.80;;;;;;5051760;28;20528;-77
2022/09/04 11:48:12;;;;;;;4.05;1.30;;;25.20;91.60;;;;;;5036414;28;20055;-79
2022/09/04 11:51:00;;;;;;;2.85;1.30;;;25.20;91.60;;;;;;5056777;28;20036;-79
2022/09/04 11:53:44;;;;;;;3.17;1.33;;;25.30;91.80;;;;;;5054703;28;20044;-78
2022/09/04 11:56:28;;;;;;;5.07;1.30;;;25.30;91.80;;;;;;5036128;28;20044;-76
2022/09/04 11:59:19;;;;;;;5.10;1.20;;;25.40;91.90;;;;;;5053003;28;20071;-76
2022/09/04 12:02:04;;;;;;;3.28;1.20;;;25.40;91.70;;;;;;5048372;28;20146;-79
2022/09/04 12:04:56;;;;;;;4.68;1.30;;;25.50;91.80;;;;;;5057910;28;20055;-79
2022/09/04 12:07:37;;;;;;;5.80;1.40;;;25.50;91.70;;;;;;5048769;28;20084;-78
2022/09/04 12:10:22;;;;;;;3.95;1.30;;;25.60;91.50;;;;;;5044571;28;20044;-78
2022/09/04 12:13:03;;;;;;;3.28;1.33;;;25.60;91.10;;;;;;5039507;28;20110;-79
2022/09/04 12:15:40;;;;;;;3.35;1.30;;;25.60;91.30;;;;;;5025059;28;20048;-81
2022/09/04 12:18:16;;;;;;;4.43;1.30;;;25.70;91.40;;;;;;5044405;28;20045;-78
2022/09/04 12:21:19;;;;;;;4.85;1.30;;;25.70;91.60;;;;;;5063881;28;20041;-78
2022/09/04 12:23:58;;;;;;;4.28;1.50;;;25.70;91.40;;;;;;5041127;28;20633;-80
2022/09/04 12:26:52;;;;;;;3.70;1.15;;;25.70;91.30;;;;;;5024574;28;20051;-78
2022/09/04 12:29:33;;;;;;;5.95;1.50;;;25.70;91.00;;;;;;5040520;28;20168;-78
2022/09/04 12:32:17;;;;;;;4.80;1.33;;;25.70;90.80;;;;;;5026454;28;20133;-78
2022/09/04 12:35:12;;;;;;;3.22;1.50;;;25.80;90.90;;;;;;5043059;28;20319;-78
2022/09/04 12:38:01;;;;;;;3.17;1.30;;;25.80;90.90;;;;;;5051973;28;20560;-77
2022/09/04 12:41:05;;;;;;;4.18;1.48;;;25.80;90.50;;;;;;5068377;28;20179;-77
2022/09/04 12:43:44;;;;;;;4.30;1.40;;;25.90;90.60;;;;;;4991831;28;20602;-77
2022/09/04 12:46:39;;;;;;;4.22;1.30;;;26.00;90.60;;;;;;5055791;28;20489;-78
2022/09/04 12:49:28;;;;;;;6.10;1.40;;;26.10;90.70;;;;;;5066631;28;20044;-79
2022/09/04 12:52:32;;;;;;;3.35;1.50;;;26.10;90.70;;;;;;5068361;28;20041;-77
2022/09/04 12:55:08;;;;;;;4.50;1.40;;;26.20;89.70;;;;;;5048547;28;20060;-79
2022/09/04 12:57:54;;;;;;;5.57;1.50;;;26.20;90.20;;;;;;5060567;28;20047;-78
2022/09/04 13:00:25;;;;;;;5.85;1.30;;;26.20;88.80;;;;;;5079004;28;20045;-78
2022/09/04 13:03:12;;;;;;;4.03;1.70;;;26.20;89.00;;;;;;5046053;28;20052;-80
2022/09/04 13:06:00;;;;;;;5.95;1.67;;;26.20;88.50;;;;;;5059588;28;20497;-79
2022/09/04 13:08:52;;;;;;;3.67;1.30;;;26.20;88.50;;;;;;5061657;28;20071;-79
2022/09/04 13:11:39;;;;;;;6.50;1.50;;;26.10;88.10;;;;;;5063909;28;20037;-79
2022/09/04 13:14:27;;;;;;;6.47;1.58;;;26.10;88.60;;;;;;5065853;28;20274;-81
2022/09/04 13:17:07;;;;;;;4.00;1.48;;;26.20;88.80;;;;;;5067770;28;20078;-82
2022/09/04 13:20:11;;;;;;;5.22;1.17;;;26.20;89.20;;;;;;5060694;28;20701;-79
2022/09/04 13:22:57;;;;;;;3.95;1.40;;;26.30;88.60;;;;;;5060872;28;20118;-79
2022/09/04 13:25:26;;;;;;;5.18;1.13;;;26.30;88.60;;;;;;5054890;28;20082;-77
2022/09/04 13:28:18;;;;;;;3.90;1.25;;;26.40;87.80;;;;;;5040436;28;20058;-79
2022/09/04 13:31:12;;;;;;;3.25;1.45;;;26.40;87.80;;;;;;5039226;28;20128;-78
2022/09/04 13:33:57;;;;;;;2.88;1.10;;;26.40;87.60;;;;;;5069913;28;20080;-77
2022/09/04 13:37:03;;;;;;;3.78;1.50;;;26.40;87.40;;;;;;5046002;28;20673;-79
2022/09/04 13:39:59;;;;;;;5.05;1.50;;;26.40;87.10;;;;;;5048504;28;21951;-79
2022/09/04 13:42:44;;;;;;;2.40;1.20;;;26.50;87.60;;;;;;5056519;28;20052;-77
2022/09/04 13:45:27;;;;;;;2.38;1.10;;;26.50;87.20;;;;;;5064325;28;20048;-77
2022/09/04 13:48:06;;;;;;;4.07;1.60;;;26.50;87.40;;;;;;5054007;28;20119;-81
2022/09/04 13:50:42;;;;;;;4.75;1.40;;;26.50;88.20;;;;;;5055770;28;20140;-75
2022/09/04 13:54:00;;;;;;;3.30;1.42;;;26.50;87.50;;;;;;5057943;28;20036;-79
2022/09/04 13:56:33;;;;;;;5.50;1.23;;;26.50;87.40;;;;;;5049779;28;20045;-78
2022/09/04 13:59:07;;;;;;;3.25;1.48;;;26.50;88.40;;;;;;5055057;28;20655;-79
2022/09/04 14:01:45;;;;;;;2.78;1.10;;;26.50;87.20;;;;;;5058123;28;20583;-82
2022/09/04 14:04:25;;;;;;;3.75;1.55;;;26.50;87.70;;;;;;5054267;28;20094;-80
2022/09/04 14:06:58;;;;;;;5.18;1.20;;;26.50;87.60;;;;;;5053983;28;20155;-79
2022/09/04 14:09:24;;;;;;;4.95;1.25;;;26.50;87.40;;;;;;5068801;28;20070;-79
2022/09/04 14:12:09;;;;;;;6.65;2.05;;;26.50;87.30;;;;;;5053576;28;20413;-77
2022/09/04 14:14:54;;;;;;;5.53;1.30;;;26.50;86.50;;;;;;5052493;28;20258;-82
2022/09/04 14:17:26;;;;;;;4.20;1.20;;;26.50;86.70;;;;;;5050983;28;20048;-79
2022/09/04 14:20:34;;;;;;;2.65;1.30;;;26.50;87.00;;;;;;5049721;28;20138;-83
2022/09/04 14:23:09;;;;;;;4.90;1.35;;;26.60;86.50;;;;;;5038923;28;20128;-76
2022/09/04 14:26:12;;;;;;;3.13;1.20;;;26.60;86.70;;;;;;5044105;28;20053;-78
2022/09/04 14:28:55;;;;;;;3.90;1.30;;;26.60;85.40;;;;;;5021571;28;20163;-80
2022/09/04 14:31:51;;;;;;;3.40;1.50;;;26.60;85.60;;;;;;5063373;28;20580;-80